createdAt,value
2019-03-15T00:01:38.324Z,5.00
2019-03-15T00:04:06.808Z,4.90
2019-03-15T00:06:35.382Z,5.00
2019-03-15T00:09:07.323Z,5.00
2019-03-15T00:11:35.792Z,5.00
2019-03-15T00:14:04.355Z,5.00
2019-03-15T00:16:32.848Z,5.00
2019-03-15T00:19:01.388Z,5.00
2019-03-15T00:21:30.761Z,5.00
2019-03-15T00:23:59.491Z,5.00
2019-03-15T00:26:28.015Z,5.00
2019-03-15T00:28:56.586Z,5.00
2019-03-15T00:31:25.219Z,5.00
2019-03-15T00:33:53.744Z,4.90
2019-03-15T00:36:22.250Z,4.80
2019-03-15T00:38:50.924Z,4.70
2019-03-15T00:41:19.561Z,4.70
2019-03-15T00:43:49.542Z,4.70
2019-03-15T00:46:18.402Z,4.70
2019-03-15T00:48:47.056Z,4.70
2019-03-15T00:51:15.712Z,4.70
2019-03-15T00:53:44.195Z,4.60
2019-03-15T00:56:12.824Z,4.60
2019-03-15T00:58:41.400Z,4.60
2019-03-15T01:01:10.199Z,4.60
2019-03-15T01:03:38.844Z,4.70
2019-03-15T01:06:07.427Z,4.70
2019-03-15T01:08:35.949Z,4.70
2019-03-15T01:11:04.578Z,4.80
2019-03-15T01:13:33.173Z,4.70
2019-03-15T01:16:01.758Z,4.70
2019-03-15T01:18:30.285Z,4.70
2019-03-15T01:20:58.847Z,4.70
2019-03-15T01:23:27.712Z,4.70
2019-03-15T01:25:56.327Z,4.70
2019-03-15T01:28:24.821Z,4.70
2019-03-15T01:30:53.732Z,4.70
2019-03-15T01:33:22.259Z,4.70
2019-03-15T01:35:50.836Z,4.60
2019-03-15T01:38:19.388Z,4.70
2019-03-15T01:40:48.934Z,4.70
2019-03-15T01:43:16.821Z,4.70
2019-03-15T01:45:45.340Z,4.70
2019-03-15T01:48:13.869Z,4.70
2019-03-15T01:50:42.502Z,4.60
2019-03-15T01:53:10.956Z,4.60
2019-03-15T01:55:39.510Z,4.50
2019-03-15T01:58:08.076Z,4.50
2019-03-15T02:00:36.768Z,4.50
2019-03-15T02:03:05.221Z,4.50
2019-03-15T02:05:33.800Z,4.50
2019-03-15T02:08:02.311Z,4.50
2019-03-15T02:10:50.227Z,4.60
2019-03-15T02:13:18.679Z,4.60
2019-03-15T02:15:47.243Z,4.60
2019-03-15T02:18:15.796Z,4.50
2019-03-15T02:20:44.453Z,4.50
2019-03-15T02:23:12.983Z,4.50
2019-03-15T02:25:41.724Z,4.60
2019-03-15T02:28:10.270Z,4.60
2019-03-15T02:30:38.845Z,4.60
2019-03-15T02:33:07.400Z,4.60
2019-03-15T02:35:35.933Z,4.60
2019-03-15T02:38:04.531Z,4.60
2019-03-15T02:40:33.199Z,4.60
2019-03-15T02:43:01.739Z,4.60
2019-03-15T02:45:30.314Z,4.70
2019-03-15T02:47:58.864Z,4.60
2019-03-15T02:50:29.118Z,4.60
2019-03-15T02:52:57.602Z,4.60
2019-03-15T02:55:26.174Z,4.60
2019-03-15T02:57:54.713Z,4.50
2019-03-15T03:00:23.242Z,4.50
2019-03-15T03:02:51.901Z,4.50
2019-03-15T03:05:20.361Z,4.50
2019-03-15T03:07:48.816Z,4.50
2019-03-15T03:10:17.311Z,4.50
2019-03-15T03:12:45.840Z,4.40
2019-03-15T03:15:14.302Z,4.50
2019-03-15T03:17:42.868Z,4.50
2019-03-15T03:20:11.392Z,4.40
2019-03-15T03:22:39.846Z,4.30
2019-03-15T03:25:08.481Z,4.30
2019-03-15T03:27:37.153Z,4.30
2019-03-15T03:30:10.492Z,4.30
2019-03-15T03:32:40.064Z,4.20
2019-03-15T03:35:10.032Z,4.20
2019-03-15T03:37:39.318Z,4.10
2019-03-15T03:40:08.647Z,4.20
2019-03-15T03:42:37.202Z,4.10
2019-03-15T03:45:07.579Z,4.20
2019-03-15T03:47:36.146Z,4.10
2019-03-15T03:50:09.501Z,4.10
2019-03-15T03:52:41.489Z,4.10
2019-03-15T03:55:08.448Z,4.10
2019-03-15T03:57:36.979Z,4.10
2019-03-15T04:00:14.464Z,4.10
2019-03-15T04:02:43.059Z,4.10
2019-03-15T04:05:11.585Z,4.10
2019-03-15T04:07:40.076Z,4.10
2019-03-15T04:10:10.274Z,4.20
2019-03-15T04:12:38.723Z,4.20
2019-03-15T04:15:09.462Z,4.20
2019-03-15T04:17:37.995Z,4.10
2019-03-15T04:20:11.768Z,4.10
2019-03-15T04:22:40.320Z,4.20
2019-03-15T04:25:10.324Z,4.20
2019-03-15T04:27:38.821Z,4.10
2019-03-15T04:30:11.551Z,4.10
2019-03-15T04:32:40.020Z,4.20
2019-03-15T04:35:08.640Z,4.20
2019-03-15T04:37:37.200Z,4.10
2019-03-15T04:40:10.828Z,4.10
2019-03-15T04:42:39.285Z,4.00
2019-03-15T04:45:08.524Z,4.00
2019-03-15T04:47:37.059Z,4.10
2019-03-15T04:50:06.948Z,4.10
2019-03-15T04:52:35.510Z,4.00
2019-03-15T04:55:05.203Z,4.00
2019-03-15T04:57:32.885Z,4.10
2019-03-15T05:00:01.460Z,4.10
2019-03-15T05:02:30.001Z,4.00
2019-03-15T05:05:00.313Z,4.10
2019-03-15T05:07:28.859Z,4.10
2019-03-15T05:09:57.331Z,4.20
2019-03-15T05:12:25.962Z,4.20
2019-03-15T05:14:54.492Z,4.10
2019-03-15T05:17:23.023Z,4.20
2019-03-15T05:19:51.506Z,4.20
2019-03-15T05:22:20.113Z,4.20
2019-03-15T05:24:48.585Z,4.30
2019-03-15T05:27:17.119Z,4.40
2019-03-15T05:29:45.636Z,4.40
2019-03-15T05:32:14.406Z,4.50
2019-03-15T05:34:42.947Z,4.50
2019-03-15T05:37:11.519Z,4.50
2019-03-15T05:39:39.989Z,4.50
2019-03-15T05:42:08.520Z,4.50
2019-03-15T05:44:37.096Z,4.60
2019-03-15T05:47:05.633Z,4.60
2019-03-15T05:49:34.087Z,4.60
2019-03-15T05:52:02.600Z,4.60
2019-03-15T05:54:31.123Z,4.60
2019-03-15T05:56:59.663Z,4.60
2019-03-15T05:59:28.213Z,4.60
2019-03-15T06:01:56.743Z,4.70
2019-03-15T06:04:25.207Z,4.70
2019-03-15T06:06:53.779Z,4.70
2019-03-15T06:09:22.227Z,4.80
2019-03-15T06:11:50.775Z,4.80
2019-03-15T06:14:19.284Z,4.70
2019-03-15T06:16:47.756Z,4.70
2019-03-15T06:19:16.328Z,4.70
2019-03-15T06:21:44.990Z,4.60
2019-03-15T06:24:13.608Z,4.60
2019-03-15T06:26:42.130Z,4.50
2019-03-15T06:29:10.649Z,4.50
2019-03-15T06:31:39.107Z,4.40
2019-03-15T06:34:07.948Z,4.50
2019-03-15T06:36:36.445Z,4.50
2019-03-15T06:39:06.728Z,4.60
2019-03-15T06:41:35.202Z,4.60
2019-03-15T06:44:03.771Z,4.70
2019-03-15T06:46:49.704Z,4.80
2019-03-15T06:49:18.260Z,4.80
2019-03-15T06:51:48.371Z,4.80
2019-03-15T06:54:17.373Z,4.90
2019-03-15T06:56:45.910Z,4.90
2019-03-15T06:59:14.440Z,5.00
2019-03-15T07:01:43.174Z,5.10
2019-03-15T07:04:12.273Z,5.10
2019-03-15T07:06:40.890Z,5.20
2019-03-15T07:09:09.569Z,5.20
2019-03-15T07:11:38.124Z,5.20
2019-03-15T07:14:08.446Z,5.30
2019-03-15T07:16:38.352Z,5.40
2019-03-15T07:19:07.141Z,5.50
2019-03-15T07:21:36.995Z,5.60
2019-03-15T07:24:05.771Z,5.50
2019-03-15T07:26:34.485Z,5.70
2019-03-15T07:29:03.044Z,5.70
2019-03-15T07:31:31.684Z,5.70
2019-03-15T07:34:00.260Z,5.70
2019-03-15T07:36:33.052Z,5.70
2019-03-15T07:39:01.570Z,5.90
2019-03-15T07:41:31.951Z,5.90
2019-03-15T07:44:00.628Z,6.00
2019-03-15T07:46:29.235Z,6.10
2019-03-15T07:48:57.773Z,6.10
2019-03-15T07:51:26.504Z,6.10
2019-03-15T07:53:55.032Z,6.10
2019-03-15T07:56:23.593Z,6.20
2019-03-15T07:58:52.072Z,6.00
2019-03-15T08:01:20.616Z,6.00
2019-03-15T08:03:49.155Z,6.10
2019-03-15T08:06:17.615Z,6.20
2019-03-15T08:08:46.263Z,6.10
2019-03-15T08:11:14.908Z,6.10
2019-03-15T08:13:43.372Z,6.10
2019-03-15T08:16:11.900Z,6.10
2019-03-15T08:18:40.439Z,6.30
2019-03-15T08:21:08.963Z,6.50
2019-03-15T08:23:37.424Z,6.70
2019-03-15T08:26:05.930Z,6.80
2019-03-15T08:28:34.519Z,6.70
2019-03-15T08:31:03.026Z,6.70
2019-03-15T08:33:31.548Z,6.80
2019-03-15T08:36:00.010Z,6.90
2019-03-15T08:38:28.976Z,6.90
2019-03-15T08:40:57.639Z,6.90
2019-03-15T08:43:26.154Z,6.70
2019-03-15T08:45:54.684Z,6.80
2019-03-15T08:48:23.279Z,7.00
2019-03-15T08:50:52.021Z,6.80
2019-03-15T08:53:20.702Z,6.80
2019-03-15T08:55:49.211Z,6.80
2019-03-15T08:58:21.822Z,6.80
2019-03-15T09:00:47.975Z,6.60
2019-03-15T09:03:27.237Z,6.70
2019-03-15T09:05:46.659Z,6.70
2019-03-15T09:08:15.189Z,6.60
2019-03-15T09:10:43.808Z,6.70
2019-03-15T09:13:12.341Z,6.90
2019-03-15T09:15:40.881Z,6.80
2019-03-15T09:18:09.459Z,6.80
2019-03-15T09:20:37.987Z,6.70
2019-03-15T09:23:06.533Z,6.80
2019-03-15T09:25:35.468Z,7.00
2019-03-15T09:28:03.989Z,7.10
2019-03-15T09:30:32.577Z,7.40
2019-03-15T09:33:03.111Z,7.70
2019-03-15T09:35:31.392Z,7.60
2019-03-15T09:37:59.916Z,7.50
2019-03-15T09:40:28.597Z,7.50
2019-03-15T09:43:00.047Z,7.50
2019-03-15T09:45:28.781Z,7.30
2019-03-15T09:47:57.511Z,7.20
2019-03-15T09:50:36.175Z,7.20
2019-03-15T09:52:56.405Z,7.00
2019-03-15T09:55:32.904Z,7.00
2019-03-15T09:57:55.181Z,6.80
2019-03-15T10:00:23.667Z,6.80
2019-03-15T10:02:52.171Z,6.60
2019-03-15T10:05:20.710Z,6.30
2019-03-15T10:07:49.274Z,6.30
2019-03-15T10:10:18.875Z,6.20
2019-03-15T10:12:48.067Z,6.30
2019-03-15T10:15:17.354Z,6.30
2019-03-15T10:17:46.359Z,6.30
2019-03-15T10:20:15.718Z,6.50
2019-03-15T10:22:44.360Z,6.50
2019-03-15T10:25:14.120Z,6.70
2019-03-15T10:27:42.696Z,6.80
2019-03-15T10:30:15.641Z,7.00
2019-03-15T10:32:44.287Z,7.00
2019-03-15T10:35:12.824Z,6.90
2019-03-15T10:37:41.424Z,6.80
2019-03-15T10:40:18.707Z,6.80
2019-03-15T10:42:47.412Z,6.90
2019-03-15T10:45:16.051Z,7.00
2019-03-15T10:47:44.559Z,7.00
2019-03-15T10:50:14.732Z,7.00
2019-03-15T10:52:43.183Z,7.20
2019-03-15T10:55:12.820Z,7.20
2019-03-15T10:57:41.381Z,7.20
2019-03-15T11:00:20.047Z,7.30
2019-03-15T11:02:48.904Z,7.30
2019-03-15T11:05:19.807Z,7.30
2019-03-15T11:07:48.426Z,7.40
2019-03-15T11:10:16.928Z,7.40
2019-03-15T11:12:45.593Z,7.50
2019-03-15T11:15:16.076Z,7.60
2019-03-15T11:17:44.610Z,7.60
2019-03-15T11:20:13.684Z,7.80
2019-03-15T11:22:42.442Z,7.80
2019-03-15T11:25:12.065Z,7.80
2019-03-15T11:27:42.307Z,7.90
2019-03-15T11:30:12.545Z,7.80
2019-03-15T11:32:41.281Z,7.80
2019-03-15T11:35:10.751Z,7.80
2019-03-15T11:37:39.483Z,7.80
2019-03-15T11:40:13.690Z,7.90
2019-03-15T11:42:41.011Z,8.00
2019-03-15T11:45:11.090Z,8.00
2019-03-15T11:47:50.759Z,8.00
2019-03-15T11:50:18.208Z,8.30
2019-03-15T11:52:46.899Z,8.60
2019-03-15T11:55:15.544Z,8.60
2019-03-15T11:57:44.264Z,8.60
2019-03-15T12:00:17.598Z,8.20
2019-03-15T12:02:46.254Z,8.00
2019-03-15T12:05:15.441Z,8.00
2019-03-15T12:07:44.119Z,8.00
2019-03-15T12:10:14.658Z,7.90
2019-03-15T12:12:43.299Z,7.80
2019-03-15T12:15:13.160Z,7.80
2019-03-15T12:17:41.843Z,7.90
2019-03-15T12:20:11.728Z,7.80
2019-03-15T12:22:40.255Z,7.90
2019-03-15T12:25:09.960Z,8.00
2019-03-15T12:27:37.714Z,8.10
2019-03-15T12:30:08.973Z,8.20
2019-03-15T12:32:37.490Z,8.20
2019-03-15T12:35:10.969Z,8.20
2019-03-15T12:37:39.525Z,8.20
2019-03-15T12:40:13.340Z,8.30
2019-03-15T12:42:41.912Z,8.20
2019-03-15T12:45:15.317Z,8.20
2019-03-15T12:47:44.663Z,8.10
2019-03-15T12:50:14.352Z,8.10
2019-03-15T12:52:47.543Z,8.00
2019-03-15T12:55:13.448Z,8.10
2019-03-15T12:57:41.476Z,8.10
2019-03-15T13:00:14.396Z,8.10
2019-03-15T13:02:42.976Z,8.20
2019-03-15T13:05:11.788Z,8.20
2019-03-15T13:07:40.292Z,8.20
2019-03-15T13:10:12.008Z,8.30
2019-03-15T13:12:40.692Z,8.20
2019-03-15T13:15:16.273Z,8.30
2019-03-15T13:17:45.033Z,8.30
2019-03-15T13:20:19.142Z,8.20
2019-03-15T13:22:47.732Z,8.20
2019-03-15T13:25:16.219Z,8.20
2019-03-15T13:27:44.787Z,8.20
2019-03-15T13:30:14.352Z,8.30
2019-03-15T13:32:42.977Z,8.40
2019-03-15T13:35:13.716Z,8.90
2019-03-15T13:37:43.138Z,9.00
2019-03-15T13:40:15.727Z,9.20
2019-03-15T13:42:44.284Z,8.90
2019-03-15T13:45:14.079Z,8.80
2019-03-15T13:47:42.699Z,8.70
2019-03-15T13:50:14.084Z,8.70
2019-03-15T13:52:42.633Z,8.60
2019-03-15T13:55:11.266Z,8.50
2019-03-15T13:57:39.794Z,8.40
2019-03-15T14:00:14.332Z,8.40
2019-03-15T14:02:42.909Z,8.50
2019-03-15T14:05:11.507Z,8.60
2019-03-15T14:07:39.963Z,8.80
2019-03-15T14:10:13.757Z,9.00
2019-03-15T14:12:42.399Z,9.00
2019-03-15T14:15:12.959Z,9.00
2019-03-15T14:17:41.466Z,8.80
2019-03-15T14:20:11.469Z,9.00
2019-03-15T14:22:39.988Z,9.60
2019-03-15T14:25:11.493Z,9.50
2019-03-15T14:27:40.264Z,10.20
2019-03-15T14:30:11.637Z,10.10
2019-03-15T14:32:40.206Z,10.00
2019-03-15T14:35:09.884Z,9.90
2019-03-15T14:37:37.721Z,9.40
2019-03-15T14:40:13.475Z,9.50
2019-03-15T14:42:42.112Z,9.60
2019-03-15T14:45:14.330Z,9.60
2019-03-15T14:47:42.911Z,10.10
2019-03-15T14:50:12.708Z,10.90
2019-03-15T14:52:41.303Z,10.60
2019-03-15T14:55:14.748Z,9.90
2019-03-15T14:57:51.796Z,9.70
2019-03-15T15:00:15.560Z,9.40
2019-03-15T15:02:44.066Z,9.30
2019-03-15T15:05:12.861Z,9.30
2019-03-15T15:07:41.568Z,9.30
2019-03-15T15:10:15.514Z,9.20
2019-03-15T15:12:44.115Z,9.50
2019-03-15T15:15:14.188Z,10.20
2019-03-15T15:17:42.974Z,10.40
2019-03-15T15:20:12.459Z,10.20
2019-03-15T15:22:41.163Z,10.20
2019-03-15T15:25:13.953Z,10.60
2019-03-15T15:27:42.482Z,10.90
2019-03-15T15:30:15.699Z,10.20
2019-03-15T15:32:44.286Z,10.10
2019-03-15T15:35:13.742Z,10.10
2019-03-15T15:37:42.350Z,9.70
2019-03-15T15:40:16.242Z,9.50
2019-03-15T15:42:44.845Z,9.20
2019-03-15T15:45:14.130Z,9.10
2019-03-15T15:47:42.624Z,9.20
2019-03-15T15:50:13.197Z,9.10
2019-03-15T15:52:41.727Z,9.20
2019-03-15T15:55:11.889Z,9.40
2019-03-15T15:57:40.406Z,9.70
2019-03-15T16:00:18.731Z,9.80
2019-03-15T16:02:47.328Z,9.60
2019-03-15T16:05:15.853Z,9.70
2019-03-15T16:07:44.443Z,9.70
2019-03-15T16:10:17.152Z,9.60
2019-03-15T16:12:44.231Z,9.50
2019-03-15T16:15:14.259Z,9.30
2019-03-15T16:17:45.211Z,8.90
2019-03-15T16:20:19.151Z,8.80
2019-03-15T16:22:47.677Z,8.60
2019-03-15T16:25:16.134Z,8.50
2019-03-15T16:27:44.627Z,8.40
2019-03-15T16:30:15.200Z,8.30
2019-03-15T16:32:43.725Z,8.30
2019-03-15T16:35:13.250Z,8.20
2019-03-15T16:37:41.852Z,8.20
2019-03-15T16:40:12.787Z,8.20
2019-03-15T16:42:41.355Z,8.10
2019-03-15T16:45:18.481Z,8.00
2019-03-15T16:47:47.057Z,8.00
2019-03-15T16:50:15.629Z,8.00
2019-03-15T16:52:44.151Z,8.00
2019-03-15T16:55:13.259Z,7.90
2019-03-15T16:57:42.255Z,7.90
2019-03-15T17:00:15.702Z,8.00
2019-03-15T17:02:44.211Z,7.90
2019-03-15T17:05:13.643Z,7.90
2019-03-15T17:07:45.576Z,7.90
2019-03-15T17:10:21.010Z,7.90
2019-03-15T17:12:49.625Z,7.90
2019-03-15T17:15:25.970Z,7.90
2019-03-15T17:17:54.514Z,7.80
2019-03-15T17:20:23.119Z,7.70
2019-03-15T17:22:51.681Z,7.70
2019-03-15T17:25:20.214Z,7.70
2019-03-15T17:27:48.747Z,7.70
2019-03-15T17:30:17.798Z,7.70
2019-03-15T17:32:46.378Z,7.60
2019-03-15T17:35:16.131Z,7.60
2019-03-15T17:37:44.727Z,7.70
2019-03-15T17:40:18.120Z,7.60
2019-03-15T17:42:46.668Z,7.60
2019-03-15T17:45:15.299Z,7.50
2019-03-15T17:47:43.896Z,7.50
2019-03-15T17:50:15.139Z,7.40
2019-03-15T17:52:43.831Z,7.40
2019-03-15T17:55:12.629Z,7.40
2019-03-15T17:57:41.090Z,7.50
2019-03-15T18:00:16.715Z,7.50
2019-03-15T18:02:45.311Z,7.50
2019-03-15T18:05:14.433Z,7.50
2019-03-15T18:07:42.995Z,7.50
2019-03-15T18:10:11.588Z,7.50
2019-03-15T18:12:40.051Z,7.50
2019-03-15T18:15:10.264Z,7.50
2019-03-15T18:17:38.727Z,7.60
2019-03-15T18:20:08.723Z,7.60
2019-03-15T18:22:37.384Z,7.60
2019-03-15T18:25:07.685Z,7.60
2019-03-15T18:27:38.983Z,7.60
2019-03-15T18:30:20.372Z,7.70
2019-03-15T18:32:48.948Z,7.70
2019-03-15T18:35:17.501Z,7.70
2019-03-15T18:37:46.219Z,7.70
2019-03-15T18:40:16.621Z,7.70
2019-03-15T18:42:48.573Z,7.70
2019-03-15T18:45:20.259Z,7.80
2019-03-15T18:47:48.864Z,7.80
2019-03-15T18:50:25.509Z,7.70
2019-03-15T18:52:54.224Z,7.60
2019-03-15T18:55:22.839Z,7.60
2019-03-15T18:57:52.995Z,7.60
2019-03-15T19:00:23.044Z,7.60
2019-03-15T19:02:59.700Z,7.60
2019-03-15T19:05:28.569Z,7.60
2019-03-15T19:07:58.843Z,7.60
2019-03-15T19:10:27.380Z,7.60
2019-03-15T19:12:56.166Z,7.50
2019-03-15T19:15:24.801Z,7.30
2019-03-15T19:17:55.870Z,7.20
2019-03-15T19:20:24.664Z,7.10
2019-03-15T19:22:53.239Z,7.00
2019-03-15T19:25:22.046Z,7.00
2019-03-15T19:27:50.672Z,7.00
2019-03-15T19:30:19.617Z,7.00
2019-03-15T19:32:48.398Z,7.10
2019-03-15T19:35:17.100Z,7.00
2019-03-15T19:37:45.667Z,7.00
2019-03-15T19:40:15.736Z,7.00
2019-03-15T19:42:45.531Z,7.00
2019-03-15T19:45:15.617Z,7.00
2019-03-15T19:47:43.436Z,7.00
2019-03-15T19:50:19.394Z,7.10
2019-03-15T19:52:48.328Z,7.10
2019-03-15T19:55:17.404Z,7.00
2019-03-15T19:57:46.115Z,7.00
2019-03-15T20:00:16.972Z,7.00
2019-03-15T20:02:45.559Z,7.00
2019-03-15T20:05:14.811Z,7.00
2019-03-15T20:07:47.368Z,7.00
2019-03-15T20:10:17.351Z,7.00
2019-03-15T20:12:45.364Z,6.90
2019-03-15T20:15:17.676Z,6.90
2019-03-15T20:17:46.158Z,6.90
2019-03-15T20:20:16.894Z,6.90
2019-03-15T20:22:45.535Z,6.90
2019-03-15T20:25:15.972Z,6.90
2019-03-15T20:27:44.587Z,6.90
2019-03-15T20:30:23.137Z,6.90
2019-03-15T20:32:50.714Z,6.90
2019-03-15T20:35:19.281Z,6.90
2019-03-15T20:37:48.243Z,6.90
2019-03-15T20:40:16.960Z,6.90
2019-03-15T20:42:45.813Z,6.90
2019-03-15T20:45:24.793Z,6.90
2019-03-15T20:47:56.305Z,6.90
2019-03-15T20:50:29.274Z,6.90
2019-03-15T20:53:08.640Z,6.90
2019-03-15T20:55:29.742Z,6.90
2019-03-15T20:58:01.176Z,6.90
2019-03-15T21:00:35.878Z,6.90
2019-03-15T21:03:01.468Z,6.90
2019-03-15T21:05:32.093Z,6.90
2019-03-15T21:08:00.374Z,6.90
2019-03-15T21:10:28.988Z,6.90
2019-03-15T21:12:57.627Z,6.90
2019-03-15T21:15:26.226Z,6.90
2019-03-15T21:17:54.744Z,6.90
2019-03-15T21:20:23.593Z,6.90
2019-03-15T21:22:52.135Z,6.90
2019-03-15T21:25:20.808Z,6.90
2019-03-15T21:27:54.623Z,6.90
2019-03-15T21:30:27.233Z,6.70
2019-03-15T21:32:55.756Z,6.60
2019-03-15T21:35:24.388Z,6.50
2019-03-15T21:37:53.001Z,6.50
2019-03-15T21:40:22.523Z,6.50
2019-03-15T21:42:51.209Z,6.40
2019-03-15T21:45:19.914Z,6.20
2019-03-15T21:47:48.455Z,6.30
2019-03-15T21:50:23.497Z,6.30
2019-03-15T21:52:52.075Z,6.30
2019-03-15T21:55:20.604Z,6.20
2019-03-15T21:57:49.160Z,6.20
2019-03-15T22:00:18.839Z,6.20
2019-03-15T22:02:47.380Z,6.20
2019-03-15T22:05:15.865Z,6.20
2019-03-15T22:07:47.044Z,6.20
2019-03-15T22:10:16.848Z,6.20
2019-03-15T22:12:45.491Z,6.20
2019-03-15T22:15:14.962Z,6.20
2019-03-15T22:17:43.533Z,6.20
2019-03-15T22:20:13.384Z,6.20
2019-03-15T22:22:41.928Z,6.20
2019-03-15T22:25:10.631Z,6.20
2019-03-15T22:27:39.191Z,6.30
2019-03-15T22:30:10.817Z,6.30
2019-03-15T22:32:39.339Z,6.30
2019-03-15T22:35:08.645Z,6.30
2019-03-15T22:37:37.278Z,6.20
2019-03-15T22:40:08.032Z,6.30
2019-03-15T22:42:36.599Z,6.20
2019-03-15T22:45:10.021Z,6.20
2019-03-15T22:47:38.611Z,6.20
2019-03-15T22:50:09.560Z,6.20
2019-03-15T22:52:38.192Z,6.20
2019-03-15T22:55:08.935Z,6.30
2019-03-15T22:57:40.492Z,6.30
2019-03-15T23:00:14.965Z,6.40
2019-03-15T23:02:43.480Z,6.50
2019-03-15T23:05:12.095Z,6.70
2019-03-15T23:07:40.692Z,6.70
2019-03-15T23:10:10.423Z,6.70
2019-03-15T23:12:38.297Z,6.60
2019-03-15T23:15:11.441Z,6.60
2019-03-15T23:17:40.199Z,6.60
2019-03-15T23:20:10.490Z,6.80
2019-03-15T23:22:39.087Z,6.80
2019-03-15T23:25:08.288Z,6.80
2019-03-15T23:27:36.827Z,6.70
2019-03-15T23:30:08.399Z,6.70
2019-03-15T23:32:42.659Z,6.70
2019-03-15T23:35:11.267Z,6.80
2019-03-15T23:37:39.868Z,6.70
2019-03-15T23:40:10.979Z,6.60
2019-03-15T23:42:39.643Z,6.60
2019-03-15T23:45:10.291Z,6.60
2019-03-15T23:47:39.021Z,6.80
2019-03-15T23:50:15.014Z,6.70
2019-03-15T23:52:44.345Z,6.70
2019-03-15T23:55:12.940Z,6.60
2019-03-15T23:57:41.471Z,6.70
